createdAt,value
2022-10-11T00:01:37.703Z,20.61
2022-10-11T00:04:04.107Z,20.62
2022-10-11T00:06:30.433Z,20.61
2022-10-11T00:08:56.782Z,20.66
2022-10-11T00:11:23.121Z,20.61
2022-10-11T00:13:49.446Z,20.61
2022-10-11T00:16:15.783Z,20.62
2022-10-11T00:18:42.105Z,20.57
2022-10-11T00:21:09.344Z,20.58
2022-10-11T00:23:35.709Z,20.58
2022-10-11T00:26:02.299Z,20.59
2022-10-11T00:28:29.100Z,20.62
2022-10-11T00:30:55.495Z,20.65
2022-10-11T00:33:21.811Z,20.61
2022-10-11T00:35:49.009Z,20.56
2022-10-11T00:38:16.200Z,20.59
2022-10-11T00:40:42.549Z,20.56
2022-10-11T00:43:09.732Z,20.62
2022-10-11T00:45:36.122Z,20.62
2022-10-11T00:48:03.313Z,20.59
2022-10-11T00:50:29.636Z,20.62
2022-10-11T00:52:55.979Z,20.56
2022-10-11T00:55:22.299Z,20.61
2022-10-11T00:57:48.668Z,20.58
2022-10-11T01:00:15.033Z,20.61
2022-10-11T01:02:41.370Z,20.58
2022-10-11T01:05:28.162Z,20.54
2022-10-11T01:07:55.051Z,20.56
2022-10-11T01:10:21.379Z,20.60
2022-10-11T01:12:47.683Z,20.49
2022-10-11T01:15:14.891Z,20.49
2022-10-11T01:17:41.208Z,20.56
2022-10-11T01:20:07.561Z,20.50
2022-10-11T01:22:33.909Z,20.49
2022-10-11T01:25:00.335Z,20.61
2022-10-11T01:27:26.661Z,20.48
2022-10-11T01:29:53.020Z,20.53
2022-10-11T01:32:19.364Z,20.46
2022-10-11T01:34:46.551Z,20.47
2022-10-11T01:37:12.890Z,20.50
2022-10-11T01:39:39.218Z,20.43
2022-10-11T01:42:05.573Z,20.44
2022-10-11T01:44:31.942Z,20.44
2022-10-11T01:46:58.296Z,20.45
2022-10-11T01:49:24.639Z,20.53
2022-10-11T01:51:50.991Z,20.46
2022-10-11T01:54:18.194Z,20.42
2022-10-11T01:56:45.473Z,20.43
2022-10-11T01:59:12.671Z,20.50
2022-10-11T02:01:39.054Z,20.46
2022-10-11T02:04:05.415Z,20.56
2022-10-11T02:06:31.758Z,20.52
2022-10-11T02:08:58.088Z,20.53
2022-10-11T02:11:24.404Z,20.45
2022-10-11T02:13:50.736Z,20.48
2022-10-11T02:16:17.938Z,20.41
2022-10-11T02:18:44.272Z,20.41
2022-10-11T02:21:11.470Z,20.41
2022-10-11T02:23:37.802Z,20.44
2022-10-11T02:26:04.504Z,20.48
2022-10-11T02:28:31.192Z,20.47
2022-10-11T02:30:57.555Z,20.47
2022-10-11T02:33:23.867Z,20.44
2022-10-11T02:35:50.204Z,20.49
2022-10-11T02:38:16.528Z,20.51
2022-10-11T02:40:42.933Z,20.40
2022-10-11T02:43:10.140Z,20.46
2022-10-11T02:45:36.466Z,20.49
2022-10-11T02:48:02.800Z,20.44
2022-10-11T02:50:29.123Z,20.44
2022-10-11T02:52:55.443Z,20.44
2022-10-11T02:55:21.802Z,20.44
2022-10-11T02:57:48.120Z,20.47
2022-10-11T03:00:15.351Z,20.45
2022-10-11T03:02:41.706Z,20.48
2022-10-11T03:05:08.198Z,20.47
2022-10-11T03:07:34.523Z,20.49
2022-10-11T03:10:00.890Z,20.48
2022-10-11T03:12:27.197Z,20.43
2022-10-11T03:14:53.533Z,20.48
2022-10-11T03:17:36.232Z,20.47
2022-10-11T03:20:03.093Z,20.44
2022-10-11T03:22:30.353Z,20.53
2022-10-11T03:25:02.528Z,20.50
2022-10-11T03:27:30.204Z,20.52
2022-10-11T03:29:56.547Z,20.55
2022-10-11T03:32:22.860Z,20.52
2022-10-11T03:34:49.197Z,20.55
2022-10-11T03:37:15.559Z,20.49
2022-10-11T03:39:41.997Z,20.53
2022-10-11T03:42:08.315Z,20.50
2022-10-11T03:44:34.785Z,20.59
2022-10-11T03:47:01.106Z,20.59
2022-10-11T03:49:27.415Z,20.51
2022-10-11T03:51:53.762Z,20.58
2022-10-11T03:54:20.956Z,20.52
2022-10-11T03:56:47.338Z,20.49
2022-10-11T03:59:14.519Z,20.48
2022-10-11T04:01:40.903Z,20.54
2022-10-11T04:04:07.284Z,20.53
2022-10-11T04:06:34.506Z,20.56
2022-10-11T04:09:00.907Z,20.56
2022-10-11T04:11:27.239Z,20.59
2022-10-11T04:13:53.556Z,20.59
2022-10-11T04:16:19.916Z,20.58
2022-10-11T04:18:47.107Z,20.53
2022-10-11T04:21:13.519Z,20.55
2022-10-11T04:23:40.694Z,20.58
2022-10-11T04:26:07.584Z,20.53
2022-10-11T04:28:34.461Z,20.45
2022-10-11T04:31:00.831Z,20.48
2022-10-11T04:33:30.081Z,20.47
2022-10-11T04:35:56.421Z,20.45
2022-10-11T04:38:22.836Z,20.51
2022-10-11T04:40:49.200Z,20.49
2022-10-11T04:43:15.511Z,20.57
2022-10-11T04:45:41.844Z,20.64
2022-10-11T04:48:09.037Z,20.67
2022-10-11T04:50:36.265Z,20.73
2022-10-11T04:53:02.611Z,20.68
2022-10-11T04:55:29.037Z,20.65
2022-10-11T04:57:55.388Z,20.66
2022-10-11T05:00:24.511Z,20.64
2022-10-11T05:02:50.928Z,20.62
2022-10-11T05:05:17.371Z,20.67
2022-10-11T05:07:43.799Z,20.62
2022-10-11T05:10:10.210Z,20.63
2022-10-11T05:12:38.472Z,20.64
2022-10-11T05:15:07.630Z,20.61
2022-10-11T05:17:34.183Z,20.58
2022-10-11T05:20:02.439Z,20.60
2022-10-11T05:22:28.844Z,20.59
2022-10-11T05:24:55.244Z,20.61
2022-10-11T05:27:21.672Z,20.63
2022-10-11T05:29:49.028Z,20.61
2022-10-11T05:32:15.513Z,20.61
2022-10-11T05:34:42.923Z,20.63
2022-10-11T05:37:09.382Z,20.64
2022-10-11T05:39:35.828Z,20.65
2022-10-11T05:42:04.563Z,20.65
2022-10-11T05:44:33.026Z,20.65
2022-10-11T05:46:59.562Z,20.68
2022-10-11T05:49:26.925Z,20.66
2022-10-11T05:51:54.291Z,20.66
2022-10-11T05:54:21.675Z,20.68
2022-10-11T05:56:49.057Z,20.68
2022-10-11T05:59:15.510Z,20.66
2022-10-11T06:01:42.927Z,20.66
2022-10-11T06:04:10.386Z,20.69
2022-10-11T06:06:36.835Z,20.64
2022-10-11T06:09:04.263Z,20.55
2022-10-11T06:11:31.638Z,20.46
2022-10-11T06:13:58.983Z,20.42
2022-10-11T06:16:26.352Z,20.44
2022-10-11T06:18:52.788Z,20.44
2022-10-11T06:21:20.174Z,20.42
2022-10-11T06:23:46.623Z,20.37
2022-10-11T06:26:14.095Z,20.34
2022-10-11T06:28:40.621Z,20.42
2022-10-11T06:31:08.041Z,20.44
2022-10-11T06:33:34.485Z,20.46
2022-10-11T06:36:00.905Z,20.48
2022-10-11T06:38:28.303Z,20.49
2022-10-11T06:40:54.739Z,20.44
2022-10-11T06:43:21.182Z,20.38
2022-10-11T06:45:47.590Z,20.32
2022-10-11T06:48:14.018Z,20.33
2022-10-11T06:50:59.214Z,20.34
2022-10-11T06:53:27.597Z,20.37
2022-10-11T06:55:54.954Z,20.35
2022-10-11T06:58:21.403Z,20.31
2022-10-11T07:00:48.832Z,20.37
2022-10-11T07:03:16.185Z,20.44
2022-10-11T07:05:43.459Z,20.48
2022-10-11T07:08:10.789Z,20.58
2022-10-11T07:10:38.130Z,20.62
2022-10-11T07:13:04.570Z,20.62
2022-10-11T07:15:30.988Z,20.59
2022-10-11T07:17:58.323Z,20.61
2022-10-11T07:20:24.855Z,20.62
2022-10-11T07:22:51.335Z,20.53
2022-10-11T07:25:17.768Z,20.48
2022-10-11T07:27:44.211Z,20.48
2022-10-11T07:30:10.686Z,20.46
2022-10-11T07:32:37.130Z,20.44
2022-10-11T07:35:03.577Z,20.42
2022-10-11T07:37:31.005Z,20.41
2022-10-11T07:39:58.399Z,20.40
2022-10-11T07:42:24.839Z,20.41
2022-10-11T07:44:52.207Z,20.35
2022-10-11T07:47:18.638Z,20.36
2022-10-11T07:49:45.119Z,20.42
2022-10-11T07:52:11.582Z,20.35
2022-10-11T07:54:38.036Z,20.39
2022-10-11T07:57:04.513Z,20.42
2022-10-11T07:59:31.032Z,20.40
2022-10-11T08:01:58.489Z,20.40
2022-10-11T08:04:24.969Z,20.38
2022-10-11T08:06:53.487Z,20.42
2022-10-11T08:09:21.078Z,20.38
2022-10-11T08:11:47.612Z,20.37
2022-10-11T08:14:14.114Z,20.35
2022-10-11T08:16:41.630Z,20.35
2022-10-11T08:19:08.046Z,20.38
2022-10-11T08:21:35.412Z,20.39
2022-10-11T08:24:02.734Z,20.34
2022-10-11T08:26:30.044Z,20.36
2022-10-11T08:28:56.851Z,20.35
2022-10-11T08:31:23.644Z,20.34
2022-10-11T08:33:51.023Z,20.34
2022-10-11T08:36:17.596Z,20.37
2022-10-11T08:38:44.122Z,20.43
2022-10-11T08:41:10.555Z,20.42
2022-10-11T08:43:37.908Z,20.39
2022-10-11T08:46:05.758Z,20.41
2022-10-11T08:48:33.388Z,20.41
2022-10-11T08:51:00.886Z,20.46
2022-10-11T08:53:28.443Z,20.50
2022-10-11T08:55:56.078Z,20.57
2022-10-11T08:58:22.698Z,20.69
2022-10-11T09:00:49.373Z,20.66
2022-10-11T09:03:16.924Z,20.73
2022-10-11T09:05:45.397Z,20.73
2022-10-11T09:08:14.027Z,20.77
2022-10-11T09:10:40.819Z,20.54
2022-10-11T09:13:07.298Z,20.37
2022-10-11T09:15:34.583Z,20.41
2022-10-11T09:18:01.815Z,19.95
2022-10-11T09:20:29.050Z,19.78
2022-10-11T09:22:56.327Z,19.89
2022-10-11T09:25:23.571Z,19.90
2022-10-11T09:28:02.303Z,19.94
2022-10-11T09:30:29.503Z,19.88
2022-10-11T09:32:57.776Z,20.00
2022-10-11T09:35:25.079Z,19.96
2022-10-11T09:37:51.496Z,19.89
2022-10-11T09:40:18.898Z,20.05
2022-10-11T09:42:45.372Z,20.23
2022-10-11T09:45:12.607Z,20.39
2022-10-11T09:47:38.979Z,20.01
2022-10-11T09:50:06.198Z,19.65
2022-10-11T09:52:33.419Z,19.70
2022-10-11T09:54:59.879Z,19.76
2022-10-11T09:57:27.117Z,19.77
2022-10-11T09:59:54.412Z,19.91
2022-10-11T10:02:21.646Z,19.98
2022-10-11T10:04:48.893Z,20.00
2022-10-11T10:07:15.336Z,19.90
2022-10-11T10:09:41.825Z,19.91
2022-10-11T10:12:08.156Z,19.96
2022-10-11T10:14:34.663Z,20.18
2022-10-11T10:17:01.869Z,20.34
2022-10-11T10:19:29.156Z,20.01
2022-10-11T10:21:56.386Z,20.00
2022-10-11T10:24:22.777Z,20.38
2022-10-11T10:26:49.981Z,20.34
2022-10-11T10:29:16.389Z,20.09
2022-10-11T10:32:09.301Z,20.14
2022-10-11T10:34:29.055Z,20.22
2022-10-11T10:36:55.391Z,19.97
2022-10-11T10:39:22.579Z,19.94
2022-10-11T10:41:48.921Z,20.05
2022-10-11T10:44:15.256Z,20.08
2022-10-11T10:46:42.457Z,19.95
2022-10-11T10:49:48.919Z,20.03
2022-10-11T10:51:55.201Z,20.13
2022-10-11T10:54:21.556Z,20.30
2022-10-11T10:56:47.922Z,19.85
2022-10-11T10:59:15.143Z,19.89
2022-10-11T11:04:07.882Z,20.00
2022-10-11T11:06:36.495Z,20.40
2022-10-11T11:09:03.135Z,20.10
2022-10-11T11:11:29.436Z,20.20
2022-10-11T11:13:55.864Z,20.25
2022-10-11T11:16:22.209Z,20.13
2022-10-11T11:18:48.573Z,20.20
2022-10-11T11:21:15.791Z,20.62
2022-10-11T11:23:42.141Z,20.43
2022-10-11T11:26:09.341Z,20.27
2022-10-11T11:28:35.712Z,20.54
2022-10-11T11:31:02.218Z,20.35
2022-10-11T11:33:28.618Z,20.35
2022-10-11T11:35:54.944Z,20.62
2022-10-11T11:38:23.038Z,20.22
2022-10-11T11:40:52.271Z,20.01
2022-10-11T11:43:18.631Z,20.05
2022-10-11T11:45:44.963Z,19.99
2022-10-11T11:48:11.301Z,20.09
2022-10-11T11:50:37.623Z,20.09
2022-10-11T11:53:03.958Z,20.04
2022-10-11T11:55:30.262Z,20.15
2022-10-11T11:57:56.632Z,20.10
2022-10-11T12:00:22.954Z,20.04
2022-10-11T12:02:49.291Z,19.91
2022-10-11T12:05:16.500Z,20.04
2022-10-11T12:07:42.860Z,20.05
2022-10-11T12:10:10.072Z,20.02
2022-10-11T12:12:36.398Z,20.02
2022-10-11T12:15:02.780Z,20.02
2022-10-11T12:17:29.099Z,20.04
2022-10-11T12:19:55.436Z,19.99
2022-10-11T12:22:21.775Z,20.00
2022-10-11T12:24:48.110Z,19.95
2022-10-11T12:27:14.483Z,20.03
2022-10-11T12:29:40.783Z,20.03
2022-10-11T12:32:07.231Z,20.07
2022-10-11T12:34:33.667Z,20.08
2022-10-11T12:37:04.449Z,20.03
2022-10-11T12:39:32.305Z,20.00
2022-10-11T12:42:00.609Z,20.08
2022-10-11T12:44:28.952Z,20.08
2022-10-11T12:46:55.275Z,20.01
2022-10-11T12:49:21.609Z,20.01
2022-10-11T12:51:47.915Z,19.99
2022-10-11T12:54:26.673Z,19.91
2022-10-11T12:56:54.465Z,19.78
2022-10-11T12:59:20.784Z,19.81
2022-10-11T13:01:47.261Z,19.89
2022-10-11T13:04:14.574Z,19.89
2022-10-11T13:06:40.927Z,19.89
2022-10-11T13:09:07.232Z,19.93
2022-10-11T13:11:33.585Z,19.94
2022-10-11T13:13:59.921Z,19.96
2022-10-11T13:16:26.300Z,19.96
2022-10-11T13:18:52.602Z,19.95
2022-10-11T13:21:23.015Z,19.94
2022-10-11T13:23:50.387Z,19.94
2022-10-11T13:26:16.726Z,19.92
2022-10-11T13:28:43.077Z,19.89
2022-10-11T13:31:10.294Z,19.87
2022-10-11T13:33:36.616Z,19.88
2022-10-11T13:36:03.238Z,19.86
2022-10-11T13:38:29.725Z,19.88
2022-10-11T13:40:56.077Z,19.86
2022-10-11T13:43:23.571Z,19.87
2022-10-11T13:45:49.942Z,19.85
2022-10-11T13:48:16.302Z,19.87
2022-10-11T13:50:42.640Z,19.86
2022-10-11T13:53:09.000Z,19.87
2022-10-11T13:55:35.374Z,19.87
2022-10-11T13:58:01.731Z,19.89
2022-10-11T14:00:28.055Z,19.85
2022-10-11T14:02:54.368Z,19.82
2022-10-11T14:05:20.708Z,19.84
2022-10-11T14:07:47.043Z,19.83
2022-10-11T14:10:13.363Z,19.83
2022-10-11T14:12:39.692Z,19.80
2022-10-11T14:15:06.071Z,19.83
2022-10-11T14:17:32.384Z,19.80
2022-10-11T14:20:04.019Z,19.78
2022-10-11T14:22:33.772Z,19.79
2022-10-11T14:25:00.072Z,19.83
2022-10-11T14:27:26.423Z,19.81
2022-10-11T14:30:12.884Z,19.80
2022-10-11T14:32:39.093Z,19.78
2022-10-11T14:35:05.449Z,19.80
2022-10-11T14:37:31.766Z,19.81
2022-10-11T14:39:58.109Z,19.78
2022-10-11T14:42:24.541Z,19.77
2022-10-11T14:44:50.865Z,19.77
2022-10-11T14:47:17.208Z,19.77
2022-10-11T14:49:43.552Z,19.75
2022-10-11T14:52:09.891Z,19.76
2022-10-11T14:54:36.229Z,19.75
2022-10-11T14:57:02.579Z,19.72
2022-10-11T14:59:28.903Z,19.73
2022-10-11T15:01:55.296Z,19.72
2022-10-11T15:04:21.662Z,19.71
2022-10-11T15:06:47.981Z,19.76
2022-10-11T15:09:14.404Z,19.73
2022-10-11T15:11:40.725Z,19.74
2022-10-11T15:14:07.037Z,19.73
2022-10-11T15:16:33.391Z,19.71
2022-10-11T15:18:59.736Z,19.70
2022-10-11T15:21:26.152Z,19.72
2022-10-11T15:23:52.519Z,19.68
2022-10-11T15:26:18.843Z,19.68
2022-10-11T15:28:45.280Z,19.67
2022-10-11T15:31:12.554Z,19.66
2022-10-11T15:33:38.926Z,19.67
2022-10-11T15:36:05.594Z,19.64
2022-10-11T15:38:32.111Z,19.63
2022-10-11T15:40:58.466Z,19.61
2022-10-11T15:43:25.289Z,19.59
2022-10-11T15:45:51.654Z,19.56
2022-10-11T15:48:18.849Z,19.57
2022-10-11T15:50:45.200Z,19.59
2022-10-11T15:53:12.401Z,19.58
2022-10-11T15:55:38.803Z,19.56
2022-10-11T15:58:05.174Z,19.59
2022-10-11T16:00:31.528Z,19.58
2022-10-11T16:02:57.901Z,19.57
2022-10-11T16:05:24.247Z,19.55
2022-10-11T16:07:50.607Z,19.51
2022-10-11T16:10:17.005Z,19.53
2022-10-11T16:12:43.392Z,19.53
2022-10-11T16:15:09.749Z,19.55
2022-10-11T16:17:36.080Z,19.57
2022-10-11T16:20:02.494Z,19.54
2022-10-11T16:22:28.833Z,19.51
2022-10-11T16:24:55.196Z,19.46
2022-10-11T16:27:21.542Z,19.46
2022-10-11T16:29:47.876Z,19.46
2022-10-11T16:32:14.231Z,19.45
2022-10-11T16:34:40.597Z,19.47
2022-10-11T16:37:07.172Z,19.47
2022-10-11T16:39:33.514Z,19.44
2022-10-11T16:41:59.867Z,19.45
2022-10-11T16:44:26.215Z,19.52
2022-10-11T16:46:52.602Z,19.55
2022-10-11T16:49:18.925Z,19.58
2022-10-11T16:51:45.283Z,19.58
2022-10-11T16:54:15.536Z,19.58
2022-10-11T16:56:44.298Z,19.57
2022-10-11T16:59:12.525Z,19.57
2022-10-11T17:01:38.860Z,19.58
2022-10-11T17:04:06.076Z,19.55
2022-10-11T17:06:32.426Z,19.55
2022-10-11T17:08:58.799Z,19.57
2022-10-11T17:11:25.988Z,19.58
2022-10-11T17:13:52.385Z,19.58
2022-10-11T17:16:18.824Z,19.57
2022-10-11T17:18:46.051Z,19.56
2022-10-11T17:21:12.526Z,19.55
2022-10-11T17:23:39.163Z,19.57
2022-10-11T17:26:10.849Z,19.56
2022-10-11T17:28:39.760Z,19.54
2022-10-11T17:31:06.435Z,19.53
2022-10-11T17:33:34.966Z,19.52
2022-10-11T17:36:01.550Z,19.55
2022-10-11T17:38:28.107Z,19.55
2022-10-11T17:40:54.755Z,19.54
2022-10-11T17:43:22.332Z,19.55
2022-10-11T17:45:49.836Z,19.54
2022-10-11T17:48:18.993Z,19.53
2022-10-11T17:50:50.386Z,19.64
2022-10-11T17:53:17.972Z,19.60
2022-10-11T17:55:45.197Z,19.68
2022-10-11T17:58:11.812Z,19.66
2022-10-11T18:00:38.640Z,19.64
2022-10-11T18:03:05.195Z,19.74
2022-10-11T18:05:33.942Z,19.66
2022-10-11T18:08:01.049Z,19.66
2022-10-11T18:10:29.747Z,19.65
2022-10-11T18:12:57.628Z,19.74
2022-10-11T18:15:24.056Z,19.73
2022-10-11T18:17:50.480Z,19.65
2022-10-11T18:20:18.497Z,19.74
2022-10-11T18:22:47.844Z,19.68
2022-10-11T18:25:17.725Z,19.59
2022-10-11T18:27:44.705Z,19.58
2022-10-11T18:30:13.693Z,19.58
2022-10-11T18:32:40.848Z,19.59
2022-10-11T18:35:07.400Z,19.62
2022-10-11T18:37:34.104Z,19.62
2022-10-11T18:40:01.024Z,19.58
2022-10-11T18:42:27.756Z,19.62
2022-10-11T18:44:54.472Z,19.66
2022-10-11T18:47:22.014Z,19.86
2022-10-11T18:49:49.282Z,20.00
2022-10-11T18:52:16.016Z,20.12
2022-10-11T18:57:09.851Z,20.24
2022-10-11T18:59:36.623Z,20.28
2022-10-11T19:02:03.447Z,20.29
2022-10-11T19:04:29.904Z,20.29
2022-10-11T19:06:56.694Z,20.28
2022-10-11T19:09:23.179Z,20.28
2022-10-11T19:11:50.594Z,20.33
2022-10-11T19:14:17.053Z,20.38
2022-10-11T19:16:43.730Z,20.41
2022-10-11T19:19:10.322Z,20.41
2022-10-11T19:21:38.181Z,20.41
2022-10-11T19:24:05.200Z,20.42
2022-10-11T19:26:38.411Z,20.42
2022-10-11T19:29:06.574Z,20.44
2022-10-11T19:34:14.961Z,20.47
2022-10-11T19:36:44.134Z,20.47
2022-10-11T19:39:13.256Z,20.47
2022-10-11T19:41:42.451Z,20.49
2022-10-11T19:44:10.717Z,20.48
2022-10-11T19:46:51.088Z,20.49
2022-10-11T19:49:20.546Z,20.49
2022-10-11T19:51:47.059Z,20.49
2022-10-11T19:54:13.698Z,20.65
2022-10-11T19:56:40.129Z,20.79
2022-10-11T19:59:06.688Z,20.76
2022-10-11T20:01:35.197Z,20.78
2022-10-11T20:04:01.727Z,20.99
2022-10-11T20:06:28.322Z,20.95
2022-10-11T20:09:24.049Z,21.00
2022-10-11T20:11:45.821Z,21.10
2022-10-11T20:14:12.201Z,21.01
2022-10-11T20:16:38.666Z,20.99
2022-10-11T20:19:05.186Z,21.02
2022-10-11T20:21:31.616Z,21.15
2022-10-11T20:23:58.092Z,20.91
2022-10-11T20:26:25.339Z,20.78
2022-10-11T20:28:55.957Z,20.77
2022-10-11T20:31:22.558Z,20.94
2022-10-11T20:33:51.714Z,20.76
2022-10-11T20:36:18.167Z,20.74
2022-10-11T20:38:47.277Z,20.69
2022-10-11T20:41:13.690Z,20.61
2022-10-11T20:43:40.048Z,20.60
2022-10-11T20:46:06.417Z,20.75
2022-10-11T20:48:32.803Z,20.77
2022-10-11T20:50:59.130Z,21.21
2022-10-11T20:53:28.320Z,20.85
2022-10-11T20:55:54.668Z,21.02
2022-10-11T20:58:21.083Z,20.94
2022-10-11T21:00:49.316Z,20.94
2022-10-11T21:03:15.769Z,20.90
2022-10-11T21:05:44.878Z,20.85
2022-10-11T21:08:13.161Z,21.01
2022-10-11T21:10:39.541Z,20.93
2022-10-11T21:13:05.923Z,20.97
2022-10-11T21:15:33.219Z,20.81
2022-10-11T21:17:59.563Z,20.88
2022-10-11T21:20:28.693Z,20.83
2022-10-11T21:22:55.919Z,20.94
2022-10-11T21:25:22.224Z,20.97
2022-10-11T21:27:52.190Z,21.04
2022-10-11T21:30:19.461Z,21.16
2022-10-11T21:32:45.940Z,21.00
2022-10-11T21:35:13.321Z,21.05
2022-10-11T21:37:40.587Z,20.80
2022-10-11T21:40:07.833Z,20.73
2022-10-11T21:42:34.471Z,20.71
2022-10-11T21:45:01.039Z,20.73
2022-10-11T21:47:27.501Z,20.68
2022-10-11T21:49:53.951Z,20.68
2022-10-11T21:52:20.355Z,20.67
2022-10-11T21:54:49.472Z,20.66
2022-10-11T21:57:15.901Z,20.62
2022-10-11T21:59:42.301Z,20.63
2022-10-11T22:02:08.741Z,20.57
2022-10-11T22:04:35.196Z,20.53
2022-10-11T22:07:01.537Z,20.56
2022-10-11T22:09:27.948Z,20.57
2022-10-11T22:11:54.309Z,20.59
2022-10-11T22:14:20.670Z,20.56
2022-10-11T22:16:47.064Z,20.53
2022-10-11T22:19:13.419Z,20.54
2022-10-11T22:21:44.773Z,20.56
2022-10-11T22:24:11.647Z,20.52
2022-10-11T22:26:38.009Z,20.57
2022-10-11T22:29:06.289Z,20.52
2022-10-11T22:31:32.731Z,20.49
2022-10-11T22:34:01.876Z,20.46
2022-10-11T22:36:28.284Z,20.51
2022-10-11T22:38:54.654Z,20.57
2022-10-11T22:41:21.085Z,20.42
2022-10-11T22:43:47.458Z,20.46
2022-10-11T22:46:16.623Z,20.44
2022-10-11T22:48:43.063Z,20.47
2022-10-11T22:51:09.481Z,20.50
2022-10-11T22:53:35.859Z,20.54
2022-10-11T22:56:04.999Z,20.52
2022-10-11T22:58:33.416Z,20.50
2022-10-11T23:00:59.790Z,20.47
2022-10-11T23:03:26.274Z,20.45
2022-10-11T23:05:53.539Z,20.44
2022-10-11T23:08:19.949Z,20.40
2022-10-11T23:10:46.394Z,20.47
2022-10-11T23:13:15.558Z,20.48
2022-10-11T23:15:43.828Z,20.52
2022-10-11T23:18:10.323Z,20.45
2022-10-11T23:20:39.496Z,20.46
2022-10-11T23:23:07.752Z,20.44
2022-10-11T23:25:35.018Z,20.48
2022-10-11T23:28:01.443Z,20.49
2022-10-11T23:30:30.599Z,20.49
2022-10-11T23:32:56.995Z,20.48
2022-10-11T23:35:23.327Z,20.44
2022-10-11T23:37:52.446Z,20.46
2022-10-11T23:40:18.829Z,20.46
2022-10-11T23:42:45.270Z,20.41
2022-10-11T23:45:14.446Z,20.45
2022-10-11T23:47:41.185Z,20.39
2022-10-11T23:50:08.529Z,20.38
2022-10-11T23:52:34.920Z,20.45
2022-10-11T23:55:01.326Z,20.41
2022-10-11T23:57:30.476Z,20.39
2022-10-11T23:59:56.843Z,20.40
